sensor_id;sensor_type;location;lat;lon;timestamp;P1;durP1;ratioP1;P2;durP2;ratioP2
80758;SDS011;70150;45.582;10.178;2023-10-13T00:04:21;44.15;;;21.75;;
80758;SDS011;70150;45.582;10.178;2023-10-13T00:06:50;41.45;;;20.48;;
80758;SDS011;70150;45.582;10.178;2023-10-13T00:09:17;40.10;;;21.45;;
80758;SDS011;70150;45.582;10.178;2023-10-13T00:11:44;48.35;;;21.48;;
80758;SDS011;70150;45.582;10.178;2023-10-13T00:14:11;44.90;;;21.35;;
80758;SDS011;70150;45.582;10.178;2023-10-13T00:16:43;40.38;;;21.85;;
80758;SDS011;70150;45.582;10.178;2023-10-13T00:19:12;44.47;;;22.30;;
80758;SDS011;70150;45.582;10.178;2023-10-13T00:21:38;41.72;;;21.45;;
80758;SDS011;70150;45.582;10.178;2023-10-13T00:24:04;41.47;;;22.10;;
80758;SDS011;70150;45.582;10.178;2023-10-13T00:26:36;42.83;;;21.23;;
80758;SDS011;70150;45.582;10.178;2023-10-13T00:29:02;37.47;;;19.63;;
80758;SDS011;70150;45.582;10.178;2023-10-13T00:31:35;44.03;;;20.45;;
80758;SDS011;70150;45.582;10.178;2023-10-13T00:34:03;44.80;;;21.83;;
80758;SDS011;70150;45.582;10.178;2023-10-13T00:36:43;43.83;;;20.77;;
80758;SDS011;70150;45.582;10.178;2023-10-13T00:39:12;37.75;;;21.25;;
80758;SDS011;70150;45.582;10.178;2023-10-13T00:41:41;40.30;;;20.35;;
80758;SDS011;70150;45.582;10.178;2023-10-13T00:44:10;47.38;;;22.02;;
80758;SDS011;70150;45.582;10.178;2023-10-13T00:46:36;42.97;;;20.05;;
80758;SDS011;70150;45.582;10.178;2023-10-13T00:49:09;35.40;;;19.85;;
80758;SDS011;70150;45.582;10.178;2023-10-13T00:51:41;38.00;;;20.02;;
80758;SDS011;70150;45.582;10.178;2023-10-13T00:54:12;35.58;;;19.00;;
80758;SDS011;70150;45.582;10.178;2023-10-13T00:56:43;35.22;;;19.88;;
80758;SDS011;70150;45.582;10.178;2023-10-13T00:59:15;38.38;;;19.88;;
80758;SDS011;70150;45.582;10.178;2023-10-13T01:01:48;35.38;;;20.70;;
80758;SDS011;70150;45.582;10.178;2023-10-13T01:04:19;44.45;;;21.20;;
80758;SDS011;70150;45.582;10.178;2023-10-13T01:06:45;36.83;;;18.77;;
80758;SDS011;70150;45.582;10.178;2023-10-13T01:09:11;44.15;;;19.02;;
80758;SDS011;70150;45.582;10.178;2023-10-13T01:11:39;34.67;;;18.95;;
80758;SDS011;70150;45.582;10.178;2023-10-13T01:14:08;40.10;;;21.95;;
80758;SDS011;70150;45.582;10.178;2023-10-13T01:16:37;37.05;;;20.73;;
80758;SDS011;70150;45.582;10.178;2023-10-13T01:19:08;36.60;;;19.38;;
80758;SDS011;70150;45.582;10.178;2023-10-13T01:21:38;38.60;;;21.42;;
80758;SDS011;70150;45.582;10.178;2023-10-13T01:24:06;42.90;;;21.75;;
80758;SDS011;70150;45.582;10.178;2023-10-13T01:26:35;44.35;;;21.75;;
80758;SDS011;70150;45.582;10.178;2023-10-13T01:29:03;42.55;;;22.02;;
80758;SDS011;70150;45.582;10.178;2023-10-13T01:31:34;38.53;;;19.80;;
80758;SDS011;70150;45.582;10.178;2023-10-13T01:34:02;42.63;;;22.17;;
80758;SDS011;70150;45.582;10.178;2023-10-13T01:36:30;39.45;;;20.33;;
80758;SDS011;70150;45.582;10.178;2023-10-13T01:39:00;35.42;;;19.85;;
80758;SDS011;70150;45.582;10.178;2023-10-13T01:41:29;43.00;;;22.17;;
80758;SDS011;70150;45.582;10.178;2023-10-13T01:43:56;38.10;;;21.30;;
80758;SDS011;70150;45.582;10.178;2023-10-13T01:46:22;45.55;;;21.52;;
80758;SDS011;70150;45.582;10.178;2023-10-13T01:48:48;40.92;;;22.52;;
80758;SDS011;70150;45.582;10.178;2023-10-13T01:51:13;40.83;;;22.20;;
80758;SDS011;70150;45.582;10.178;2023-10-13T01:53:39;42.10;;;21.52;;
80758;SDS011;70150;45.582;10.178;2023-10-13T01:56:07;46.80;;;22.33;;
80758;SDS011;70150;45.582;10.178;2023-10-13T01:58:38;39.35;;;22.00;;
80758;SDS011;70150;45.582;10.178;2023-10-13T02:01:07;43.38;;;21.50;;
80758;SDS011;70150;45.582;10.178;2023-10-13T02:03:34;39.25;;;21.20;;
80758;SDS011;70150;45.582;10.178;2023-10-13T02:06:11;34.90;;;20.23;;
80758;SDS011;70150;45.582;10.178;2023-10-13T02:08:42;36.97;;;20.17;;
80758;SDS011;70150;45.582;10.178;2023-10-13T02:11:08;39.08;;;20.75;;
80758;SDS011;70150;45.582;10.178;2023-10-13T02:13:34;42.20;;;19.45;;
80758;SDS011;70150;45.582;10.178;2023-10-13T02:16:06;38.97;;;19.27;;
80758;SDS011;70150;45.582;10.178;2023-10-13T02:18:32;36.75;;;19.23;;
80758;SDS011;70150;45.582;10.178;2023-10-13T02:21:06;40.08;;;20.00;;
80758;SDS011;70150;45.582;10.178;2023-10-13T02:23:38;34.35;;;19.30;;
80758;SDS011;70150;45.582;10.178;2023-10-13T02:26:08;38.03;;;18.42;;
80758;SDS011;70150;45.582;10.178;2023-10-13T02:28:37;35.17;;;19.20;;
80758;SDS011;70150;45.582;10.178;2023-10-13T02:31:03;32.22;;;19.63;;
80758;SDS011;70150;45.582;10.178;2023-10-13T02:33:29;36.13;;;19.70;;
80758;SDS011;70150;45.582;10.178;2023-10-13T02:35:56;35.60;;;19.85;;
80758;SDS011;70150;45.582;10.178;2023-10-13T02:38:23;38.90;;;20.27;;
80758;SDS011;70150;45.582;10.178;2023-10-13T02:40:52;37.67;;;19.50;;
80758;SDS011;70150;45.582;10.178;2023-10-13T02:43:21;35.10;;;19.40;;
80758;SDS011;70150;45.582;10.178;2023-10-13T02:45:52;38.67;;;19.98;;
80758;SDS011;70150;45.582;10.178;2023-10-13T02:48:23;40.08;;;21.77;;
80758;SDS011;70150;45.582;10.178;2023-10-13T02:50:54;39.88;;;21.02;;
80758;SDS011;70150;45.582;10.178;2023-10-13T02:53:21;39.75;;;22.08;;
80758;SDS011;70150;45.582;10.178;2023-10-13T02:55:49;39.53;;;21.38;;
80758;SDS011;70150;45.582;10.178;2023-10-13T02:58:17;43.78;;;22.02;;
80758;SDS011;70150;45.582;10.178;2023-10-13T03:00:43;45.28;;;21.67;;
80758;SDS011;70150;45.582;10.178;2023-10-13T03:03:09;40.97;;;22.08;;
80758;SDS011;70150;45.582;10.178;2023-10-13T03:05:35;42.75;;;22.98;;
80758;SDS011;70150;45.582;10.178;2023-10-13T03:08:04;39.42;;;20.13;;
80758;SDS011;70150;45.582;10.178;2023-10-13T03:10:31;42.75;;;22.98;;
80758;SDS011;70150;45.582;10.178;2023-10-13T03:12:57;46.45;;;23.73;;
80758;SDS011;70150;45.582;10.178;2023-10-13T03:15:24;42.10;;;21.45;;
80758;SDS011;70150;45.582;10.178;2023-10-13T03:17:53;43.55;;;23.83;;
80758;SDS011;70150;45.582;10.178;2023-10-13T03:20:20;39.13;;;22.50;;
80758;SDS011;70150;45.582;10.178;2023-10-13T03:22:52;45.42;;;23.42;;
80758;SDS011;70150;45.582;10.178;2023-10-13T03:25:18;43.80;;;23.13;;
80758;SDS011;70150;45.582;10.178;2023-10-13T03:27:47;41.38;;;21.48;;
80758;SDS011;70150;45.582;10.178;2023-10-13T03:30:16;38.28;;;21.15;;
80758;SDS011;70150;45.582;10.178;2023-10-13T03:32:42;47.03;;;22.67;;
80758;SDS011;70150;45.582;10.178;2023-10-13T03:35:10;40.35;;;22.60;;
80758;SDS011;70150;45.582;10.178;2023-10-13T03:37:42;41.75;;;22.95;;
80758;SDS011;70150;45.582;10.178;2023-10-13T03:40:08;47.38;;;24.25;;
80758;SDS011;70150;45.582;10.178;2023-10-13T03:42:38;42.60;;;22.42;;
80758;SDS011;70150;45.582;10.178;2023-10-13T03:45:05;48.50;;;25.67;;
80758;SDS011;70150;45.582;10.178;2023-10-13T03:47:35;41.60;;;22.20;;
80758;SDS011;70150;45.582;10.178;2023-10-13T03:50:04;40.25;;;23.33;;
80758;SDS011;70150;45.582;10.178;2023-10-13T03:52:34;44.20;;;22.38;;
80758;SDS011;70150;45.582;10.178;2023-10-13T03:55:01;36.58;;;20.27;;
80758;SDS011;70150;45.582;10.178;2023-10-13T03:57:30;40.58;;;18.90;;
80758;SDS011;70150;45.582;10.178;2023-10-13T03:59:58;26.92;;;15.85;;
80758;SDS011;70150;45.582;10.178;2023-10-13T04:02:33;29.92;;;16.55;;
80758;SDS011;70150;45.582;10.178;2023-10-13T04:04:58;29.63;;;16.38;;
80758;SDS011;70150;45.582;10.178;2023-10-13T04:07:32;32.53;;;15.68;;
80758;SDS011;70150;45.582;10.178;2023-10-13T04:10:01;28.40;;;15.60;;
80758;SDS011;70150;45.582;10.178;2023-10-13T04:12:30;31.80;;;16.25;;
80758;SDS011;70150;45.582;10.178;2023-10-13T04:14:59;33.40;;;16.77;;
80758;SDS011;70150;45.582;10.178;2023-10-13T04:17:27;34.25;;;16.17;;
80758;SDS011;70150;45.582;10.178;2023-10-13T04:22:23;31.80;;;15.55;;
80758;SDS011;70150;45.582;10.178;2023-10-13T04:25:09;32.55;;;16.55;;
80758;SDS011;70150;45.582;10.178;2023-10-13T04:27:57;30.17;;;16.15;;
80758;SDS011;70150;45.582;10.178;2023-10-13T04:30:26;31.02;;;16.30;;
80758;SDS011;70150;45.582;10.178;2023-10-13T04:32:52;31.25;;;16.77;;
80758;SDS011;70150;45.582;10.178;2023-10-13T04:35:31;30.27;;;16.35;;
80758;SDS011;70150;45.582;10.178;2023-10-13T04:38:01;30.77;;;16.55;;
80758;SDS011;70150;45.582;10.178;2023-10-13T04:40:40;30.10;;;16.42;;
80758;SDS011;70150;45.582;10.178;2023-10-13T04:43:23;27.02;;;15.48;;
80758;SDS011;70150;45.582;10.178;2023-10-13T04:45:52;31.67;;;15.43;;
80758;SDS011;70150;45.582;10.178;2023-10-13T04:48:21;32.25;;;17.65;;
80758;SDS011;70150;45.582;10.178;2023-10-13T04:50:47;38.95;;;18.25;;
80758;SDS011;70150;45.582;10.178;2023-10-13T04:53:17;34.60;;;19.58;;
80758;SDS011;70150;45.582;10.178;2023-10-13T04:55:48;39.78;;;19.15;;
80758;SDS011;70150;45.582;10.178;2023-10-13T04:58:17;38.20;;;18.67;;
80758;SDS011;70150;45.582;10.178;2023-10-13T05:01:03;32.47;;;16.15;;
80758;SDS011;70150;45.582;10.178;2023-10-13T05:03:32;29.40;;;15.80;;
80758;SDS011;70150;45.582;10.178;2023-10-13T05:06:01;29.10;;;14.68;;
80758;SDS011;70150;45.582;10.178;2023-10-13T05:08:29;25.27;;;15.05;;
80758;SDS011;70150;45.582;10.178;2023-10-13T05:11:02;29.23;;;14.82;;
80758;SDS011;70150;45.582;10.178;2023-10-13T05:13:32;30.33;;;14.50;;
80758;SDS011;70150;45.582;10.178;2023-10-13T05:16:00;31.85;;;14.93;;
80758;SDS011;70150;45.582;10.178;2023-10-13T05:18:29;29.90;;;13.95;;
80758;SDS011;70150;45.582;10.178;2023-10-13T05:20:58;31.67;;;15.32;;
80758;SDS011;70150;45.582;10.178;2023-10-13T05:23:26;30.92;;;13.63;;
80758;SDS011;70150;45.582;10.178;2023-10-13T05:26:01;44.90;;;15.82;;
80758;SDS011;70150;45.582;10.178;2023-10-13T05:28:30;34.17;;;15.20;;
80758;SDS011;70150;45.582;10.178;2023-10-13T05:30:59;29.00;;;14.52;;
80758;SDS011;70150;45.582;10.178;2023-10-13T05:33:28;32.88;;;15.77;;
80758;SDS011;70150;45.582;10.178;2023-10-13T05:35:56;27.60;;;16.77;;
80758;SDS011;70150;45.582;10.178;2023-10-13T05:38:25;27.92;;;15.52;;
80758;SDS011;70150;45.582;10.178;2023-10-13T05:40:55;37.47;;;19.45;;
80758;SDS011;70150;45.582;10.178;2023-10-13T05:43:25;35.25;;;17.02;;
80758;SDS011;70150;45.582;10.178;2023-10-13T05:45:55;30.35;;;14.48;;
80758;SDS011;70150;45.582;10.178;2023-10-13T05:48:29;33.80;;;15.23;;
80758;SDS011;70150;45.582;10.178;2023-10-13T05:51:00;31.15;;;14.82;;
80758;SDS011;70150;45.582;10.178;2023-10-13T05:53:29;30.73;;;14.32;;
80758;SDS011;70150;45.582;10.178;2023-10-13T05:55:59;25.55;;;14.10;;
80758;SDS011;70150;45.582;10.178;2023-10-13T05:58:29;30.90;;;14.63;;
80758;SDS011;70150;45.582;10.178;2023-10-13T06:00:57;29.05;;;14.90;;
80758;SDS011;70150;45.582;10.178;2023-10-13T06:03:26;28.42;;;15.35;;
80758;SDS011;70150;45.582;10.178;2023-10-13T06:05:55;33.85;;;15.90;;
80758;SDS011;70150;45.582;10.178;2023-10-13T06:08:23;36.72;;;17.40;;
80758;SDS011;70150;45.582;10.178;2023-10-13T06:11:00;37.15;;;20.90;;
80758;SDS011;70150;45.582;10.178;2023-10-13T06:13:30;40.03;;;20.88;;
80758;SDS011;70150;45.582;10.178;2023-10-13T06:15:59;31.65;;;18.25;;
80758;SDS011;70150;45.582;10.178;2023-10-13T06:18:28;29.48;;;14.68;;
80758;SDS011;70150;45.582;10.178;2023-10-13T06:20:56;29.13;;;14.10;;
80758;SDS011;70150;45.582;10.178;2023-10-13T06:23:25;26.13;;;14.57;;
80758;SDS011;70150;45.582;10.178;2023-10-13T06:25:56;27.65;;;14.93;;
80758;SDS011;70150;45.582;10.178;2023-10-13T06:28:27;28.80;;;14.15;;
80758;SDS011;70150;45.582;10.178;2023-10-13T06:30:57;29.58;;;14.10;;
80758;SDS011;70150;45.582;10.178;2023-10-13T06:33:23;28.42;;;13.13;;
80758;SDS011;70150;45.582;10.178;2023-10-13T06:35:54;24.88;;;13.10;;
80758;SDS011;70150;45.582;10.178;2023-10-13T06:38:21;29.40;;;12.95;;
80758;SDS011;70150;45.582;10.178;2023-10-13T06:40:48;29.30;;;14.80;;
80758;SDS011;70150;45.582;10.178;2023-10-13T06:43:15;29.52;;;13.60;;
80758;SDS011;70150;45.582;10.178;2023-10-13T06:45:43;28.30;;;13.25;;
80758;SDS011;70150;45.582;10.178;2023-10-13T06:48:15;35.35;;;14.02;;
80758;SDS011;70150;45.582;10.178;2023-10-13T06:53:13;29.30;;;14.63;;
80758;SDS011;70150;45.582;10.178;2023-10-13T06:55:39;42.70;;;23.88;;
80758;SDS011;70150;45.582;10.178;2023-10-13T06:58:05;50.10;;;26.77;;
80758;SDS011;70150;45.582;10.178;2023-10-13T07:00:32;52.28;;;23.27;;
80758;SDS011;70150;45.582;10.178;2023-10-13T07:03:01;46.30;;;23.70;;
80758;SDS011;70150;45.582;10.178;2023-10-13T07:05:30;47.75;;;25.52;;
80758;SDS011;70150;45.582;10.178;2023-10-13T07:07:57;44.15;;;23.08;;
80758;SDS011;70150;45.582;10.178;2023-10-13T07:10:24;42.38;;;22.27;;
80758;SDS011;70150;45.582;10.178;2023-10-13T07:12:55;46.40;;;24.98;;
80758;SDS011;70150;45.582;10.178;2023-10-13T07:15:25;48.20;;;24.75;;
80758;SDS011;70150;45.582;10.178;2023-10-13T07:17:52;50.63;;;26.35;;
80758;SDS011;70150;45.582;10.178;2023-10-13T07:20:21;53.50;;;27.23;;
80758;SDS011;70150;45.582;10.178;2023-10-13T07:22:50;50.42;;;24.73;;
80758;SDS011;70150;45.582;10.178;2023-10-13T07:25:19;53.90;;;25.70;;
80758;SDS011;70150;45.582;10.178;2023-10-13T07:27:50;51.90;;;27.55;;
80758;SDS011;70150;45.582;10.178;2023-10-13T07:30:15;47.05;;;26.20;;
80758;SDS011;70150;45.582;10.178;2023-10-13T07:32:45;46.20;;;24.77;;
80758;SDS011;70150;45.582;10.178;2023-10-13T07:35:12;39.40;;;21.52;;
80758;SDS011;70150;45.582;10.178;2023-10-13T07:37:41;42.25;;;19.13;;
80758;SDS011;70150;45.582;10.178;2023-10-13T07:40:08;30.63;;;15.48;;
80758;SDS011;70150;45.582;10.178;2023-10-13T07:42:54;27.05;;;14.35;;
80758;SDS011;70150;45.582;10.178;2023-10-13T07:45:27;26.75;;;13.27;;
80758;SDS011;70150;45.582;10.178;2023-10-13T07:48:01;27.95;;;13.05;;
80758;SDS011;70150;45.582;10.178;2023-10-13T07:50:37;31.23;;;14.50;;
80758;SDS011;70150;45.582;10.178;2023-10-13T07:53:03;30.23;;;13.70;;
80758;SDS011;70150;45.582;10.178;2023-10-13T07:55:44;26.00;;;13.60;;
80758;SDS011;70150;45.582;10.178;2023-10-13T07:58:12;28.42;;;14.32;;
80758;SDS011;70150;45.582;10.178;2023-10-13T08:00:39;38.63;;;19.35;;
80758;SDS011;70150;45.582;10.178;2023-10-13T08:03:08;35.70;;;18.48;;
80758;SDS011;70150;45.582;10.178;2023-10-13T08:05:35;36.95;;;18.20;;
80758;SDS011;70150;45.582;10.178;2023-10-13T08:08:03;33.92;;;18.42;;
80758;SDS011;70150;45.582;10.178;2023-10-13T08:10:35;40.22;;;20.23;;
80758;SDS011;70150;45.582;10.178;2023-10-13T08:13:01;44.63;;;20.27;;
80758;SDS011;70150;45.582;10.178;2023-10-13T08:15:26;43.33;;;18.55;;
80758;SDS011;70150;45.582;10.178;2023-10-13T08:17:58;37.55;;;19.05;;
80758;SDS011;70150;45.582;10.178;2023-10-13T08:20:29;38.13;;;18.98;;
80758;SDS011;70150;45.582;10.178;2023-10-13T08:22:55;38.35;;;19.65;;
80758;SDS011;70150;45.582;10.178;2023-10-13T08:25:39;37.72;;;19.77;;
80758;SDS011;70150;45.582;10.178;2023-10-13T08:28:08;36.40;;;19.08;;
80758;SDS011;70150;45.582;10.178;2023-10-13T08:30:37;38.00;;;18.80;;
80758;SDS011;70150;45.582;10.178;2023-10-13T08:33:17;41.30;;;20.88;;
80758;SDS011;70150;45.582;10.178;2023-10-13T08:35:49;44.30;;;21.83;;
80758;SDS011;70150;45.582;10.178;2023-10-13T08:38:18;41.65;;;22.13;;
80758;SDS011;70150;45.582;10.178;2023-10-13T08:40:46;47.47;;;22.67;;
80758;SDS011;70150;45.582;10.178;2023-10-13T08:43:24;48.53;;;23.15;;
80758;SDS011;70150;45.582;10.178;2023-10-13T08:46:05;43.45;;;22.23;;
80758;SDS011;70150;45.582;10.178;2023-10-13T08:48:32;44.92;;;21.65;;
80758;SDS011;70150;45.582;10.178;2023-10-13T08:50:58;48.75;;;23.10;;
80758;SDS011;70150;45.582;10.178;2023-10-13T08:53:31;47.67;;;23.30;;
80758;SDS011;70150;45.582;10.178;2023-10-13T08:58:30;47.33;;;22.77;;
80758;SDS011;70150;45.582;10.178;2023-10-13T09:00:59;52.85;;;24.60;;
80758;SDS011;70150;45.582;10.178;2023-10-13T09:03:28;46.22;;;24.42;;
80758;SDS011;70150;45.582;10.178;2023-10-13T09:06:03;51.78;;;25.65;;
80758;SDS011;70150;45.582;10.178;2023-10-13T09:08:31;50.85;;;26.05;;
80758;SDS011;70150;45.582;10.178;2023-10-13T09:11:01;47.05;;;25.20;;
80758;SDS011;70150;45.582;10.178;2023-10-13T09:13:36;56.45;;;26.35;;
80758;SDS011;70150;45.582;10.178;2023-10-13T09:16:10;47.05;;;26.23;;
80758;SDS011;70150;45.582;10.178;2023-10-13T09:18:40;47.38;;;25.08;;
80758;SDS011;70150;45.582;10.178;2023-10-13T09:21:09;50.33;;;25.92;;
80758;SDS011;70150;45.582;10.178;2023-10-13T09:23:45;49.88;;;24.30;;
80758;SDS011;70150;45.582;10.178;2023-10-13T09:26:13;50.97;;;26.02;;
80758;SDS011;70150;45.582;10.178;2023-10-13T09:28:40;50.30;;;25.83;;
80758;SDS011;70150;45.582;10.178;2023-10-13T09:31:05;47.65;;;25.40;;
80758;SDS011;70150;45.582;10.178;2023-10-13T09:33:33;50.85;;;24.83;;
80758;SDS011;70150;45.582;10.178;2023-10-13T09:36:01;49.75;;;24.50;;
80758;SDS011;70150;45.582;10.178;2023-10-13T09:38:32;43.53;;;23.13;;
80758;SDS011;70150;45.582;10.178;2023-10-13T09:40:58;47.47;;;21.42;;
80758;SDS011;70150;45.582;10.178;2023-10-13T09:43:42;52.60;;;24.88;;
80758;SDS011;70150;45.582;10.178;2023-10-13T09:46:08;48.97;;;24.00;;
80758;SDS011;70150;45.582;10.178;2023-10-13T09:48:38;47.55;;;24.38;;
80758;SDS011;70150;45.582;10.178;2023-10-13T09:51:06;50.40;;;23.63;;
80758;SDS011;70150;45.582;10.178;2023-10-13T09:53:38;51.38;;;25.25;;
80758;SDS011;70150;45.582;10.178;2023-10-13T09:58:42;58.55;;;23.73;;
80758;SDS011;70150;45.582;10.178;2023-10-13T10:01:17;43.92;;;23.92;;
80758;SDS011;70150;45.582;10.178;2023-10-13T10:04:05;45.75;;;24.70;;
80758;SDS011;70150;45.582;10.178;2023-10-13T10:06:38;48.22;;;24.67;;
80758;SDS011;70150;45.582;10.178;2023-10-13T10:09:07;45.17;;;22.67;;
80758;SDS011;70150;45.582;10.178;2023-10-13T10:14:13;43.25;;;23.40;;
80758;SDS011;70150;45.582;10.178;2023-10-13T10:19:18;50.28;;;24.67;;
80758;SDS011;70150;45.582;10.178;2023-10-13T10:21:44;48.22;;;23.38;;
80758;SDS011;70150;45.582;10.178;2023-10-13T10:26:49;40.63;;;21.50;;
80758;SDS011;70150;45.582;10.178;2023-10-13T10:29:17;39.00;;;20.27;;
80758;SDS011;70150;45.582;10.178;2023-10-13T10:31:42;35.33;;;20.05;;
80758;SDS011;70150;45.582;10.178;2023-10-13T10:34:12;33.47;;;16.08;;
80758;SDS011;70150;45.582;10.178;2023-10-13T10:39:13;43.30;;;23.02;;
80758;SDS011;70150;45.582;10.178;2023-10-13T10:41:40;44.05;;;23.23;;
80758;SDS011;70150;45.582;10.178;2023-10-13T10:44:09;45.47;;;25.38;;
80758;SDS011;70150;45.582;10.178;2023-10-13T10:46:41;46.72;;;24.55;;
80758;SDS011;70150;45.582;10.178;2023-10-13T10:49:17;44.88;;;21.98;;
80758;SDS011;70150;45.582;10.178;2023-10-13T10:51:52;33.05;;;16.58;;
80758;SDS011;70150;45.582;10.178;2023-10-13T10:54:26;34.05;;;17.85;;
80758;SDS011;70150;45.582;10.178;2023-10-13T10:56:56;35.78;;;18.75;;
80758;SDS011;70150;45.582;10.178;2023-10-13T10:59:36;36.90;;;18.23;;
80758;SDS011;70150;45.582;10.178;2023-10-13T11:02:03;37.03;;;19.42;;
80758;SDS011;70150;45.582;10.178;2023-10-13T11:04:29;34.13;;;19.05;;
80758;SDS011;70150;45.582;10.178;2023-10-13T11:06:58;35.10;;;19.25;;
80758;SDS011;70150;45.582;10.178;2023-10-13T11:11:51;31.65;;;15.93;;
80758;SDS011;70150;45.582;10.178;2023-10-13T11:16:48;29.38;;;15.30;;
80758;SDS011;70150;45.582;10.178;2023-10-13T11:19:17;33.97;;;17.23;;
80758;SDS011;70150;45.582;10.178;2023-10-13T11:21:46;29.95;;;13.48;;
80758;SDS011;70150;45.582;10.178;2023-10-13T11:24:13;27.23;;;14.63;;
80758;SDS011;70150;45.582;10.178;2023-10-13T11:26:39;26.73;;;14.52;;
80758;SDS011;70150;45.582;10.178;2023-10-13T11:29:08;30.98;;;16.10;;
80758;SDS011;70150;45.582;10.178;2023-10-13T11:31:36;31.38;;;16.30;;
80758;SDS011;70150;45.582;10.178;2023-10-13T11:34:02;30.23;;;15.25;;
80758;SDS011;70150;45.582;10.178;2023-10-13T11:36:31;20.30;;;10.65;;
80758;SDS011;70150;45.582;10.178;2023-10-13T11:38:58;23.65;;;9.85;;
80758;SDS011;70150;45.582;10.178;2023-10-13T11:41:24;21.73;;;10.38;;
80758;SDS011;70150;45.582;10.178;2023-10-13T11:43:57;21.90;;;9.82;;
80758;SDS011;70150;45.582;10.178;2023-10-13T11:46:26;16.52;;;8.38;;
80758;SDS011;70150;45.582;10.178;2023-10-13T11:48:55;16.23;;;8.20;;
80758;SDS011;70150;45.582;10.178;2023-10-13T11:51:22;13.88;;;7.22;;
80758;SDS011;70150;45.582;10.178;2023-10-13T11:53:49;15.27;;;6.75;;
80758;SDS011;70150;45.582;10.178;2023-10-13T11:56:19;16.98;;;7.55;;
80758;SDS011;70150;45.582;10.178;2023-10-13T11:58:46;12.13;;;6.75;;
80758;SDS011;70150;45.582;10.178;2023-10-13T12:01:13;15.32;;;7.80;;
80758;SDS011;70150;45.582;10.178;2023-10-13T12:03:42;14.43;;;7.60;;
80758;SDS011;70150;45.582;10.178;2023-10-13T12:06:11;21.13;;;10.40;;
80758;SDS011;70150;45.582;10.178;2023-10-13T12:08:40;20.95;;;10.95;;
80758;SDS011;70150;45.582;10.178;2023-10-13T12:11:16;18.55;;;9.18;;
80758;SDS011;70150;45.582;10.178;2023-10-13T12:26:44;14.57;;;8.38;;
80758;SDS011;70150;45.582;10.178;2023-10-13T12:29:11;20.77;;;8.55;;
80758;SDS011;70150;45.582;10.178;2023-10-13T12:31:47;16.40;;;9.32;;
80758;SDS011;70150;45.582;10.178;2023-10-13T12:34:26;14.88;;;7.60;;
80758;SDS011;70150;45.582;10.178;2023-10-13T12:37:12;16.05;;;6.93;;
80758;SDS011;70150;45.582;10.178;2023-10-13T12:39:43;14.50;;;7.55;;
80758;SDS011;70150;45.582;10.178;2023-10-13T12:42:11;13.95;;;7.25;;
80758;SDS011;70150;45.582;10.178;2023-10-13T12:44:40;12.85;;;7.43;;
80758;SDS011;70150;45.582;10.178;2023-10-13T12:47:09;16.67;;;7.63;;
80758;SDS011;70150;45.582;10.178;2023-10-13T12:49:37;17.55;;;7.10;;
80758;SDS011;70150;45.582;10.178;2023-10-13T12:52:06;18.55;;;6.93;;
80758;SDS011;70150;45.582;10.178;2023-10-13T12:54:35;14.63;;;7.80;;
80758;SDS011;70150;45.582;10.178;2023-10-13T12:57:01;13.60;;;7.68;;
80758;SDS011;70150;45.582;10.178;2023-10-13T12:59:27;17.55;;;7.57;;
80758;SDS011;70150;45.582;10.178;2023-10-13T13:01:53;16.25;;;7.50;;
80758;SDS011;70150;45.582;10.178;2023-10-13T13:04:19;19.17;;;7.95;;
80758;SDS011;70150;45.582;10.178;2023-10-13T13:06:46;23.52;;;8.35;;
80758;SDS011;70150;45.582;10.178;2023-10-13T13:09:13;25.30;;;7.50;;
80758;SDS011;70150;45.582;10.178;2023-10-13T13:11:39;17.73;;;8.10;;
80758;SDS011;70150;45.582;10.178;2023-10-13T13:14:06;22.52;;;8.77;;
80758;SDS011;70150;45.582;10.178;2023-10-13T13:16:33;14.52;;;7.63;;
80758;SDS011;70150;45.582;10.178;2023-10-13T13:18:59;18.17;;;8.60;;
80758;SDS011;70150;45.582;10.178;2023-10-13T13:21:28;16.98;;;9.05;;
80758;SDS011;70150;45.582;10.178;2023-10-13T13:23:57;17.83;;;8.57;;
80758;SDS011;70150;45.582;10.178;2023-10-13T13:26:23;17.33;;;9.13;;
80758;SDS011;70150;45.582;10.178;2023-10-13T13:28:49;16.65;;;7.90;;
80758;SDS011;70150;45.582;10.178;2023-10-13T13:31:17;18.58;;;9.40;;
80758;SDS011;70150;45.582;10.178;2023-10-13T13:33:44;19.00;;;8.43;;
80758;SDS011;70150;45.582;10.178;2023-10-13T13:36:10;19.40;;;8.63;;
80758;SDS011;70150;45.582;10.178;2023-10-13T13:38:39;20.40;;;8.65;;
80758;SDS011;70150;45.582;10.178;2023-10-13T13:43:44;21.27;;;9.25;;
80758;SDS011;70150;45.582;10.178;2023-10-13T13:46:15;16.25;;;8.98;;
80758;SDS011;70150;45.582;10.178;2023-10-13T13:48:42;14.73;;;8.38;;
80758;SDS011;70150;45.582;10.178;2023-10-13T13:51:08;17.65;;;9.38;;
80758;SDS011;70150;45.582;10.178;2023-10-13T13:53:37;18.25;;;8.43;;
80758;SDS011;70150;45.582;10.178;2023-10-13T13:56:07;19.42;;;7.70;;
80758;SDS011;70150;45.582;10.178;2023-10-13T13:58:33;16.65;;;7.70;;
80758;SDS011;70150;45.582;10.178;2023-10-13T14:01:02;18.95;;;7.32;;
80758;SDS011;70150;45.582;10.178;2023-10-13T14:03:31;17.73;;;7.80;;
80758;SDS011;70150;45.582;10.178;2023-10-13T14:05:58;16.77;;;7.85;;
80758;SDS011;70150;45.582;10.178;2023-10-13T14:08:24;15.13;;;8.48;;
80758;SDS011;70150;45.582;10.178;2023-10-13T14:13:20;17.15;;;7.97;;
80758;SDS011;70150;45.582;10.178;2023-10-13T14:15:47;17.73;;;7.40;;
80758;SDS011;70150;45.582;10.178;2023-10-13T14:18:13;16.50;;;7.28;;
80758;SDS011;70150;45.582;10.178;2023-10-13T14:20:40;17.45;;;8.00;;
80758;SDS011;70150;45.582;10.178;2023-10-13T14:23:07;16.65;;;8.40;;
80758;SDS011;70150;45.582;10.178;2023-10-13T14:25:37;16.35;;;7.97;;
80758;SDS011;70150;45.582;10.178;2023-10-13T14:28:04;19.80;;;8.55;;
80758;SDS011;70150;45.582;10.178;2023-10-13T14:30:31;15.95;;;7.50;;
80758;SDS011;70150;45.582;10.178;2023-10-13T14:32:56;16.88;;;8.98;;
80758;SDS011;70150;45.582;10.178;2023-10-13T14:35:23;19.95;;;9.15;;
80758;SDS011;70150;45.582;10.178;2023-10-13T14:37:51;14.82;;;7.30;;
80758;SDS011;70150;45.582;10.178;2023-10-13T14:40:17;12.90;;;6.97;;
80758;SDS011;70150;45.582;10.178;2023-10-13T14:42:46;15.20;;;8.10;;
80758;SDS011;70150;45.582;10.178;2023-10-13T14:45:13;17.63;;;7.03;;
80758;SDS011;70150;45.582;10.178;2023-10-13T14:47:41;15.73;;;7.10;;
80758;SDS011;70150;45.582;10.178;2023-10-13T14:50:07;15.30;;;7.53;;
80758;SDS011;70150;45.582;10.178;2023-10-13T14:52:39;15.68;;;6.55;;
80758;SDS011;70150;45.582;10.178;2023-10-13T14:55:05;13.10;;;6.38;;
80758;SDS011;70150;45.582;10.178;2023-10-13T14:57:43;11.00;;;6.47;;
80758;SDS011;70150;45.582;10.178;2023-10-13T15:00:12;15.32;;;6.57;;
80758;SDS011;70150;45.582;10.178;2023-10-13T15:02:39;11.90;;;6.63;;
80758;SDS011;70150;45.582;10.178;2023-10-13T15:05:08;13.82;;;7.22;;
80758;SDS011;70150;45.582;10.178;2023-10-13T15:07:41;12.52;;;6.93;;
80758;SDS011;70150;45.582;10.178;2023-10-13T15:10:11;12.00;;;6.60;;